createdAt,value
2019-06-01T00:05:05.352Z,98297.25
2019-06-01T00:15:06.893Z,98296.47
2019-06-01T00:25:08.389Z,98289.30
2019-06-01T00:35:09.773Z,98292.46
2019-06-01T00:45:11.402Z,98277.31
2019-06-01T00:55:12.587Z,98282.91
2019-06-01T01:05:16.521Z,98275.20
2019-06-01T01:15:18.620Z,98268.52
2019-06-01T01:25:19.706Z,98268.52
2019-06-01T01:35:21.128Z,98266.89
2019-06-01T01:45:22.355Z,98274.52
2019-06-01T01:55:23.354Z,98273.66
2019-06-01T02:05:24.452Z,98269.11
2019-06-01T02:15:25.589Z,98262.98
2019-06-01T02:25:26.707Z,98253.34
2019-06-01T02:35:27.746Z,98254.31
2019-06-01T02:45:28.963Z,98249.98
2019-06-01T02:55:30.072Z,98249.41
2019-06-01T03:05:31.708Z,98256.01
2019-06-01T03:15:35.552Z,98256.48
2019-06-01T03:25:38.254Z,98270.91
2019-06-01T03:35:39.262Z,98272.79
2019-06-01T03:45:40.287Z,98263.84
2019-06-01T03:55:41.342Z,98264.43
2019-06-01T04:05:42.379Z,98260.88
2019-06-01T04:15:43.396Z,98269.28
2019-06-01T04:25:44.380Z,98265.94
2019-06-01T04:35:45.409Z,98263.93
2019-06-01T04:45:46.523Z,98261.08
2019-06-01T04:55:47.511Z,98253.38
2019-06-01T05:05:48.532Z,98258.70
2019-06-01T05:15:49.574Z,98264.42
2019-06-01T05:25:53.277Z,98268.43
2019-06-01T05:35:53.591Z,98269.62
2019-06-01T05:45:55.584Z,98261.33
2019-06-01T05:55:56.582Z,98259.62
2019-06-01T06:05:57.619Z,98231.74
2019-06-01T06:15:58.659Z,98230.60
2019-06-01T06:25:59.769Z,98215.37
2019-06-01T06:36:00.807Z,98220.41
2019-06-01T06:46:01.922Z,98214.42
2019-06-01T06:56:03.903Z,98207.00
2019-06-01T07:06:04.941Z,98210.86
2019-06-01T07:16:06.102Z,98199.67
2019-06-01T07:26:07.112Z,98193.97
2019-06-01T07:36:08.321Z,98192.56
2019-06-01T07:46:10.642Z,98190.43
2019-06-01T07:56:11.753Z,98172.53
2019-06-01T08:06:12.813Z,98171.72
2019-06-01T08:16:13.872Z,98172.02
2019-06-01T08:26:14.971Z,98161.59
2019-06-01T08:36:15.996Z,98142.69
2019-06-01T08:46:17.256Z,98133.89
2019-06-01T08:56:21.839Z,98123.84
2019-06-01T09:06:21.437Z,98121.66
2019-06-01T09:16:22.498Z,98099.09
2019-06-01T09:26:26.268Z,98107.56
2019-06-01T09:36:28.340Z,98089.94
2019-06-01T09:46:31.958Z,98093.21
2019-06-01T09:56:35.505Z,98094.38
2019-06-01T10:06:36.746Z,98084.98
2019-06-01T10:16:38.884Z,98074.22
2019-06-01T10:26:40.059Z,98065.16
2019-06-01T10:36:42.200Z,98056.70
2019-06-01T10:46:43.307Z,98059.67
2019-06-01T10:56:44.448Z,98048.38
2019-06-01T11:06:48.607Z,98045.07
2019-06-01T11:16:55.683Z,98063.84
2019-06-01T11:26:51.409Z,98054.45
2019-06-01T11:37:04.925Z,98051.98
2019-06-01T11:46:56.612Z,98051.81
2019-06-01T11:56:57.606Z,98033.20
2019-06-01T12:07:16.442Z,98033.67
2019-06-01T12:17:02.909Z,98014.27
2019-06-01T12:27:04.121Z,98011.68
2019-06-01T12:37:05.259Z,98001.72
2019-06-01T12:47:06.552Z,98000.92
2019-06-01T12:57:07.594Z,97985.58
2019-06-01T13:07:08.755Z,97975.88
2019-06-01T13:17:09.809Z,97964.02
2019-06-01T13:27:10.822Z,97951.24
2019-06-01T13:37:11.847Z,97943.41
2019-06-01T13:47:12.900Z,97934.34
2019-06-01T13:57:14.653Z,97920.92
2019-06-01T14:07:15.834Z,97915.77
2019-06-01T14:17:17.021Z,97899.34
2019-06-01T14:27:18.142Z,97905.63
2019-06-01T14:37:19.174Z,97897.27
2019-06-01T14:47:22.230Z,97883.70
2019-06-01T14:57:23.367Z,97872.39
2019-06-01T15:07:24.395Z,97875.70
2019-06-01T15:17:25.905Z,97876.97
2019-06-01T15:27:26.965Z,97868.58
2019-06-01T15:37:28.086Z,97861.04
2019-06-01T15:47:29.175Z,97849.53
2019-06-01T15:57:30.191Z,97852.19
2019-06-01T16:07:31.292Z,97843.22
2019-06-01T16:17:32.297Z,97820.69
2019-06-01T16:27:33.442Z,97813.02
2019-06-01T16:37:34.449Z,97809.34
2019-06-01T16:47:35.460Z,97806.08
2019-06-01T16:57:36.699Z,97801.36
2019-06-01T17:07:37.822Z,97804.11
2019-06-01T17:17:38.944Z,97796.68
2019-06-01T17:27:40.950Z,97806.13
2019-06-01T17:37:41.949Z,97808.09
2019-06-01T17:47:42.959Z,97803.66
2019-06-01T17:57:43.983Z,97802.88
2019-06-01T18:07:44.994Z,97799.64
2019-06-01T18:17:47.319Z,97795.09
2019-06-01T18:27:48.639Z,97801.91
2019-06-01T18:37:53.655Z,97800.14
2019-06-01T18:47:54.945Z,97801.52
2019-06-01T18:57:58.457Z,97804.05
2019-06-01T19:08:01.988Z,97801.38
2019-06-01T19:18:04.107Z,97809.92
2019-06-01T19:28:05.120Z,97822.33
2019-06-01T19:38:07.041Z,97833.91
2019-06-01T19:48:09.909Z,97841.01
2019-06-01T19:58:12.120Z,97844.37
2019-06-01T20:08:14.275Z,97845.17
2019-06-01T20:18:16.951Z,97846.48
2019-06-01T20:28:19.537Z,97853.47
2019-06-01T20:38:20.761Z,97857.55
2019-06-01T20:48:22.942Z,97858.09
2019-06-01T20:58:24.975Z,97857.59
2019-06-01T21:08:26.556Z,97864.02
2019-06-01T21:18:27.674Z,97874.04
2019-06-01T21:28:28.688Z,97877.16
2019-06-01T21:38:29.915Z,97886.62
2019-06-01T21:48:31.164Z,97891.16
2019-06-01T21:58:32.326Z,97900.33
2019-06-01T22:08:33.351Z,97894.53
2019-06-01T22:18:34.384Z,97892.59
2019-06-01T22:28:35.490Z,97898.73
2019-06-01T22:38:36.538Z,97894.25
2019-06-01T22:48:37.589Z,97890.95
2019-06-01T22:58:39.431Z,97885.47
2019-06-01T23:08:40.796Z,97879.72
2019-06-01T23:18:41.854Z,97878.28
2019-06-01T23:28:43.117Z,97879.34
2019-06-01T23:38:44.179Z,97875.77
2019-06-01T23:48:46.260Z,97876.54
2019-06-01T23:58:47.556Z,97866.92
